createdAt,value
2022-12-08T00:03:04.534Z,100503.27
2022-12-08T00:06:28.529Z,100500.05
2022-12-08T00:09:45.068Z,100503.97
2022-12-08T00:12:50.142Z,100503.47
2022-12-08T00:15:55.840Z,100497.28
2022-12-08T00:19:02.097Z,100494.17
2022-12-08T00:22:07.216Z,100493.19
2022-12-08T00:25:12.768Z,100491.65
2022-12-08T00:28:19.508Z,100486.02
2022-12-08T00:31:25.196Z,100475.94
2022-12-08T00:34:30.613Z,100482.99
2022-12-08T00:37:36.285Z,100476.41
2022-12-08T00:40:42.728Z,100472.69
2022-12-08T00:43:49.098Z,100468.07
2022-12-08T00:46:54.217Z,100477.09
2022-12-08T00:50:00.784Z,100478.94
2022-12-08T00:53:06.453Z,100483.28
2022-12-08T00:56:12.520Z,100488.09
2022-12-08T00:59:20.196Z,100495.94
2022-12-08T01:02:25.300Z,100497.74
2022-12-08T01:05:32.147Z,100513.24
2022-12-08T01:08:39.043Z,100515.03
2022-12-08T01:11:44.917Z,100514.36
2022-12-08T01:14:51.860Z,100510.74
2022-12-08T01:17:57.673Z,100503.27
2022-12-08T01:21:03.640Z,100482.98
2022-12-08T01:24:10.407Z,100482.52
2022-12-08T01:27:16.073Z,100488.30
2022-12-08T01:30:23.552Z,100488.24
2022-12-08T01:33:29.460Z,100487.30
2022-12-08T04:17:42.265Z,100477.11
2022-12-08T04:20:48.294Z,100478.53
2022-12-08T04:23:57.626Z,100479.42
2022-12-08T04:27:00.680Z,100473.48
2022-12-08T04:30:06.834Z,100475.34
2022-12-08T04:33:13.325Z,100479.95
2022-12-08T04:36:20.879Z,100479.28
2022-12-08T04:39:26.319Z,100488.52
2022-12-08T04:42:31.726Z,100489.05
2022-12-08T04:45:38.486Z,100492.01
2022-12-08T04:48:44.345Z,100489.94
2022-12-08T04:51:50.168Z,100483.63
2022-12-08T04:54:55.902Z,100493.58
2022-12-08T04:58:02.506Z,100499.02
2022-12-08T05:01:09.149Z,100503.41
2022-12-08T05:04:15.750Z,100507.02
2022-12-08T05:07:21.798Z,100501.87
2022-12-08T05:10:27.831Z,100508.00
2022-12-08T05:13:35.502Z,100502.27
2022-12-08T05:16:41.462Z,100515.02
2022-12-08T05:19:48.148Z,100519.00
2022-12-08T05:22:54.264Z,100528.70
2022-12-08T05:25:59.328Z,100524.08
2022-12-08T05:29:05.777Z,100526.09
2022-12-08T05:32:11.588Z,100534.41
2022-12-08T05:35:16.917Z,100532.37
2022-12-08T05:38:21.925Z,100531.42
2022-12-08T05:41:30.603Z,100535.78
2022-12-08T05:44:35.537Z,100537.44
2022-12-08T05:47:41.671Z,100542.27
2022-12-08T05:50:46.676Z,100543.09
2022-12-08T05:53:52.782Z,100543.49
2022-12-08T05:56:58.041Z,100540.67
2022-12-08T06:00:06.472Z,100540.03
2022-12-08T06:03:12.662Z,100543.09
2022-12-08T06:06:18.957Z,100542.06
2022-12-08T06:09:24.829Z,100552.84
2022-12-08T06:12:30.586Z,100554.19
2022-12-08T06:15:37.146Z,100550.38
2022-12-08T06:18:43.113Z,100542.56
2022-12-08T06:21:48.144Z,100545.27
2022-12-08T06:24:54.809Z,100540.36
2022-12-08T06:28:02.265Z,100543.99
2022-12-08T06:31:09.193Z,100538.17
2022-12-08T06:34:14.128Z,100539.80
2022-12-08T06:37:19.787Z,100546.01
2022-12-08T06:40:27.270Z,100547.82
2022-12-08T06:43:34.084Z,100547.31
2022-12-08T06:46:40.487Z,100546.98
2022-12-08T06:49:45.138Z,100551.45
2022-12-08T06:53:01.081Z,100563.14
2022-12-08T06:56:08.326Z,100560.08
2022-12-08T06:59:13.875Z,100554.77
2022-12-08T07:02:20.419Z,100564.59
2022-12-08T21:20:56.080Z,100464.65
2022-12-08T21:24:01.856Z,100468.31
2022-12-08T21:27:08.423Z,100466.19
2022-12-08T21:30:14.749Z,100465.61
2022-12-08T21:33:15.727Z,100455.34
2022-12-08T21:36:26.628Z,100465.82
2022-12-08T21:39:32.070Z,100462.56
2022-12-08T21:42:52.123Z,100466.03
2022-12-08T21:45:56.399Z,100471.64
2022-12-08T21:49:01.516Z,100461.31
2022-12-08T21:52:06.247Z,100471.00
2022-12-08T21:55:13.015Z,100471.45
2022-12-08T21:58:18.519Z,100463.41
2022-12-08T22:01:24.965Z,100475.19
2022-12-08T22:04:33.868Z,100477.58
2022-12-08T22:07:40.776Z,100476.86
2022-12-08T22:10:47.337Z,100480.13
2022-12-08T22:13:55.131Z,100474.16
2022-12-08T22:17:01.479Z,100467.98
2022-12-08T22:20:07.868Z,100465.38
2022-12-08T22:23:12.651Z,100468.99
2022-12-08T22:26:17.942Z,100469.09
2022-12-08T22:29:23.348Z,100460.02
2022-12-08T22:32:28.657Z,100454.48
2022-12-08T22:35:34.499Z,100452.42
2022-12-08T22:38:40.579Z,100452.22
2022-12-08T22:41:39.638Z,100451.41
2022-12-08T22:44:45.325Z,100446.06
2022-12-08T22:47:50.825Z,100447.14
2022-12-08T22:50:55.884Z,100444.63
2022-12-08T22:54:01.104Z,100433.81
2022-12-08T22:57:07.152Z,100433.86
2022-12-08T23:00:13.504Z,100427.64
2022-12-08T23:03:20.140Z,100426.31
2022-12-08T23:06:28.908Z,100428.75
2022-12-08T23:09:34.544Z,100418.75
2022-12-08T23:12:40.295Z,100403.00
2022-12-08T23:15:46.373Z,100414.08
2022-12-08T23:18:53.183Z,100399.34
2022-12-08T23:21:58.299Z,100401.20
2022-12-08T23:25:03.418Z,100397.73
2022-12-08T23:28:07.895Z,100406.72
2022-12-08T23:31:07.067Z,100414.46
2022-12-08T23:33:59.434Z,100427.25
2022-12-08T23:37:05.017Z,100419.14
2022-12-08T23:40:10.820Z,100419.25
2022-12-08T23:43:16.557Z,100428.35
2022-12-08T23:46:22.596Z,100440.03
2022-12-08T23:49:30.744Z,100434.20
2022-12-08T23:52:35.724Z,100426.17
2022-12-08T23:55:42.585Z,100426.17
2022-12-08T23:58:48.107Z,100441.48
